| time (UTC) | temp C | wind direction | speed KPH | gust KPH | rain 1hr cm | rain 24hr cm | rain mn cm | humidity % | barometer mb |
| 20260504205004 | 23 | 238 | 8.0 | 4.8 | 0.00 | 0.00 | 0.00 | 35 | 1010.5 |
| 20260504204504 | 23 | 299 | 8.0 | 12.9 | 0.00 | 0.00 | 0.00 | 35 | 1010.7 |
| 20260504204004 | 24 | 315 | 8.0 | 20.9 | 0.00 | 0.00 | 0.00 | 35 | 1010.7 |
| 20260504203505 | 24 | 18 | 8.0 | 20.9 | 0.00 | 0.00 | 0.00 | 32 | 1010.7 |
| 20260504203004 | 23 | 136 | 8.0 | 12.9 | 0.00 | 0.00 | 0.00 | 34 | 1010.7 |
| 20260504202504 | 23 | 11 | 8.0 | 19.3 | 0.00 | 0.00 | 0.00 | 33 | 1010.7 |
| 20260504202006 | 23 | 291 | 8.0 | 19.3 | 0.00 | 0.00 | 0.00 | 34 | 1010.7 |
| 20260504201504 | 23 | 58 | 8.0 | 14.5 | 0.00 | 0.00 | 0.00 | 32 | 1010.8 |
| 20260504201003 | 22 | 0 | 8.0 | 19.3 | 0.00 | 0.00 | 0.00 | 35 | 1010.8 |
| 20260504195504 | 22 | 338 | 9.7 | 24.1 | 0.00 | 0.00 | 0.00 | 36 | 1010.8 |
| 20260504195004 | 22 | 328 | 9.7 | 14.5 | 0.00 | 0.00 | 0.00 | 38 | 1010.8 |
| 20260504194503 | 22 | 324 | 3.2 | 3.2 | 0.00 | 0.00 | 0.00 | 40 | 1011.2 |
| 20260504194004 | 22 | 324 | 3.2 | 3.2 | 0.00 | 0.00 | 0.00 | 40 | 1011.2 |
| 20260504193506 | 22 | 324 | 3.2 | 8.0 | 0.00 | 0.00 | 0.00 | 40 | 1011.2 |
| 20260504193004 | 22 | 173 | 3.2 | 9.7 | 0.00 | 0.00 | 0.00 | 40 | 1011.2 |
| 20260504192504 | 21 | 20 | 4.8 | 4.8 | 0.00 | 0.00 | 0.00 | 41 | 1011.2 |
| 20260504192004 | 21 | 20 | 4.8 | 4.8 | 0.00 | 0.00 | 0.00 | 41 | 1011.2 |
| 20260504191504 | 21 | 20 | 4.8 | 9.7 | 0.00 | 0.00 | 0.00 | 41 | 1011.4 |
| 20260504191004 | 21 | 317 | 4.8 | 9.7 | 0.00 | 0.00 | 0.00 | 41 | 1011.4 |
| 20260504185004 | 22 | 319 | 8.0 | 12.9 | 0.00 | 0.00 | 0.00 | 40 | 1011.4 |
| 20260504184503 | 22 | 357 | 3.2 | 14.5 | 0.00 | 0.00 | 0.00 | 41 | 1011.5 |
| 20260504184004 | 22 | 348 | 4.8 | 14.5 | 0.00 | 0.00 | 0.00 | 41 | 1011.5 |
| 20260504183504 | 22 | 348 | 4.8 | 14.5 | 0.00 | 0.00 | 0.00 | 41 | 1011.5 |
| 20260504183003 | 22 | 348 | 4.8 | 14.5 | 0.00 | 0.00 | 0.00 | 41 | 1011.7 |
| 20260504182003 | 21 | 123 | 8.0 | 11.3 | 0.00 | 0.00 | 0.00 | 37 | 1011.7 |
| 20260504181003 | 22 | 308 | 8.0 | 16.1 | 0.00 | 0.00 | 0.00 | 39 | 1011.7 |
| 20260504180504 | 21 | 286 | 4.8 | 16.1 | 0.00 | 0.00 | 0.00 | 40 | 1011.7 |
| 20260504180004 | 21 | 309 | 4.8 | 9.7 | 0.00 | 0.00 | 0.00 | 39 | 1011.8 |
| 20260504175505 | 21 | 27 | 8.0 | 9.7 | 0.00 | 0.00 | 0.00 | 41 | 1011.8 |
| 20260504175004 | 20 | 291 | 8.0 | 9.7 | 0.00 | 0.00 | 0.00 | 43 | 1011.8 |
| 20260504174004 | 20 | 303 | 8.0 | 12.9 | 0.00 | 0.00 | 0.00 | 44 | 1011.9 |
| 20260504173004 | 20 | 190 | 4.8 | 24.1 | 0.00 | 0.00 | 0.00 | 41 | 1012.0 |
| 20260504172503 | 20 | 330 | 4.8 | 12.9 | 0.00 | 0.00 | 0.00 | 43 | 1012.0 |
| 20260504171506 | 20 | 301 | 4.8 | 9.7 | 0.00 | 0.00 | 0.00 | 44 | 1012.0 |
| 20260504171004 | 20 | 214 | 4.8 | 14.5 | 0.00 | 0.00 | 0.00 | 44 | 1012.0 |
| 20260504170504 | 20 | 253 | 4.8 | 11.3 | 0.00 | 0.00 | 0.00 | 43 | 1012.0 |
| 20260504151004 | 12 | 146 | 0.0 | 0.0 | 0.00 | 0.00 | 0.00 | 75 | 1012.4 |
| 20260504150506 | 12 | 146 | 0.0 | 0.0 | 0.00 | 0.00 | 0.00 | 75 | 1012.4 |
| 20260504141006 | 6 | 25 | 0.0 | 0.0 | 0.00 | 0.00 | 0.00 | 90 | 1012.2 |
| 20260504130505 | 5 | 0 | 0.0 | 0.0 | 0.00 | 0.00 | 0.00 | 88 | 1011.9 |
| 20260504110504 | 7 | 150 | 0.0 | 0.0 | 0.00 | 0.00 | 0.00 | 81 | 1012.0 |
| 20260504100504 | 8 | 102 | 0.0 | 0.0 | 0.00 | 0.00 | 0.00 | 77 | 1011.9 |
| 20260504082004 | 12 | 0 | 1.6 | 0.0 | 0.00 | 0.00 | 0.00 | 67 | 1012.0 |
| 20260504081505 | 12 | 359 | 1.6 | 3.2 | 0.00 | 0.00 | 0.00 | 66 | 1012.0 |
| 20260504081006 | 13 | 359 | 1.6 | 4.8 | 0.00 | 0.00 | 0.00 | 65 | 1012.0 |
| 20260504080505 | 13 | 357 | 3.2 | 4.8 | 0.00 | 0.00 | 0.00 | 64 | 1012.0 |
| 20260504050503 | 16 | 327 | 4.8 | 16.1 | 0.00 | 0.00 | 0.00 | 52 | 1011.8 |
| 20260504050005 | 16 | 344 | 4.8 | 16.1 | 0.00 | 0.00 | 0.00 | 51 | 1011.7 |
| 20260504045504 | 16 | 14 | 8.0 | 8.0 | 0.00 | 0.00 | 0.00 | 50 | 1011.7 |
| 20260504045004 | 16 | 14 | 8.0 | 8.0 | 0.00 | 0.00 | 0.00 | 50 | 1011.7 |
| 20260504044004 | 16 | 10 | 8.0 | 16.1 | 0.00 | 0.00 | 0.00 | 50 | 1011.7 |
| 20260504043504 | 16 | 349 | 9.7 | 16.1 | 0.00 | 0.00 | 0.00 | 49 | 1011.7 |
| 20260504043004 | 17 | 357 | 9.7 | 16.1 | 0.00 | 0.00 | 0.00 | 48 | 1011.6 |
| 20260504042504 | 17 | 343 | 8.0 | 19.3 | 0.00 | 0.00 | 0.00 | 48 | 1011.6 |
| 20260504042005 | 17 | 2 | 8.0 | 16.1 | 0.00 | 0.00 | 0.00 | 49 | 1011.6 |
| 20260504041504 | 17 | 339 | 9.7 | 14.5 | 0.00 | 0.00 | 0.00 | 49 | 1011.4 |
| 20260504041004 | 17 | 347 | 9.7 | 14.5 | 0.00 | 0.00 | 0.00 | 48 | 1011.4 |
| 20260504040504 | 18 | 324 | 9.7 | 20.9 | 0.00 | 0.00 | 0.00 | 46 | 1011.4 |
| 20260504040005 | 18 | 330 | 9.7 | 16.1 | 0.00 | 0.00 | 0.00 | 44 | 1011.5 |
| 20260504035504 | 18 | 354 | 9.7 | 14.5 | 0.00 | 0.00 | 0.00 | 44 | 1011.5 |
| 20260504035006 | 18 | 0 | 9.7 | 22.5 | 0.00 | 0.00 | 0.00 | 44 | 1011.5 |
| 20260504034503 | 18 | 17 | 9.7 | 24.1 | 0.00 | 0.00 | 0.00 | 45 | 1011.7 |
| 20260504034003 | 17 | 0 | 0.0 | 9.7 | 0.00 | 0.00 | 0.00 | 47 | 1011.7 |
| 20260504033504 | 17 | 16 | 14.5 | 9.7 | 0.00 | 0.00 | 0.00 | 47 | 1011.7 |
| 20260504033004 | 17 | 16 | 14.5 | 9.7 | 0.00 | 0.00 | 0.00 | 47 | 1011.2 |
| 20260504032505 | 17 | 16 | 14.5 | 24.1 | 0.00 | 0.00 | 0.00 | 47 | 1011.2 |
| 20260504032004 | 17 | 25 | 14.5 | 33.8 | 0.00 | 0.00 | 0.00 | 47 | 1011.2 |
| 20260504031003 | 17 | 34 | 12.9 | 22.5 | 0.00 | 0.00 | 0.00 | 48 | 1011.4 |
| 20260504030504 | 17 | 7 | 9.7 | 27.4 | 0.00 | 0.00 | 0.00 | 48 | 1011.4 |
| 20260504030004 | 17 | 10 | 9.7 | 20.9 | 0.00 | 0.00 | 0.00 | 49 | 1011.8 |
| 20260504024505 | 17 | 29 | 4.8 | 14.5 | 0.00 | 0.05 | 0.00 | 49 | 1011.9 |
| 20260504024003 | 17 | 13 | 4.8 | 11.3 | 0.00 | 0.05 | 0.00 | 51 | 1011.9 |
| 20260504023506 | 17 | 354 | 4.8 | 9.7 | 0.00 | 0.05 | 0.00 | 52 | 1011.9 |
| 20260504023004 | 17 | 322 | 4.8 | 11.3 | 0.00 | 0.05 | 0.00 | 53 | 1011.7 |
| 20260504022505 | 18 | 329 | 4.8 | 8.0 | 0.00 | 0.05 | 0.00 | 52 | 1011.7 |
| 20260504022004 | 18 | 324 | 4.8 | 12.9 | 0.00 | 0.05 | 0.00 | 52 | 1011.7 |
| 20260504021504 | 18 | 343 | 8.0 | 11.3 | 0.00 | 0.05 | 0.00 | 52 | 1011.6 |
| 20260504021005 | 18 | 344 | 8.0 | 11.3 | 0.00 | 0.05 | 0.00 | 52 | 1011.6 |
| 20260504020505 | 18 | 334 | 4.8 | 12.9 | 0.00 | 0.05 | 0.00 | 52 | 1011.6 |
| 20260504015504 | 18 | 355 | 8.0 | 11.3 | 0.00 | 0.05 | 0.00 | 52 | 1011.6 |
| 20260504015005 | 18 | 337 | 8.0 | 9.7 | 0.00 | 0.05 | 0.00 | 52 | 1011.6 |
| 20260504014503 | 18 | 338 | 8.0 | 11.3 | 0.00 | 0.05 | 0.00 | 53 | 1011.5 |
| 20260504014004 | 18 | 348 | 8.0 | 12.9 | 0.00 | 0.05 | 0.00 | 53 | 1011.5 |
| 20260504013007 | 18 | 324 | 8.0 | 8.0 | 0.00 | 0.05 | 0.00 | 48 | 1011.5 |
| 20260504012504 | 18 | 324 | 8.0 | 8.0 | 0.00 | 0.05 | 0.00 | 48 | 1011.5 |
| 20260504012005 | 18 | 324 | 8.0 | 8.0 | 0.00 | 0.05 | 0.00 | 48 | 1011.5 |
| 20260504011504 | 19 | 327 | 8.0 | 11.3 | 0.00 | 0.05 | 0.00 | 48 | 1011.5 |
| 20260504011004 | 19 | 349 | 8.0 | 11.3 | 0.00 | 0.05 | 0.00 | 48 | 1011.5 |
| 20260504010004 | 19 | 338 | 8.0 | 9.7 | 0.00 | 0.05 | 0.00 | 48 | 1011.6 |
| 20260504005506 | 19 | 330 | 3.2 | 12.9 | 0.00 | 0.05 | 0.00 | 48 | 1011.6 |
| 20260504004504 | 19 | 344 | 8.0 | 8.0 | 0.00 | 0.05 | 0.00 | 48 | 1011.8 |
| 20260504004005 | 20 | 327 | 8.0 | 12.9 | 0.00 | 0.05 | 0.00 | 48 | 1011.8 |
| 20260504003504 | 20 | 319 | 3.2 | 12.9 | 0.00 | 0.05 | 0.00 | 50 | 1011.8 |
| 20260504002503 | 19 | 0 | 1.6 | 8.0 | 0.00 | 0.05 | 0.00 | 48 | 1011.7 |
| 20260504002004 | 19 | 182 | 3.2 | 8.0 | 0.00 | 0.05 | 0.00 | 48 | 1011.7 |
| 20260504001004 | 19 | 182 | 3.2 | 11.3 | 0.00 | 0.05 | 0.00 | 48 | 1011.9 |
| 20260503235504 | 19 | 210 | 8.0 | 9.7 | 0.00 | 0.05 | 0.00 | 46 | 1012.2 |
| 20260503235005 | 19 | 197 | 8.0 | 12.9 | 0.00 | 0.05 | 0.00 | 46 | 1012.2 |
| 20260503234504 | 20 | 147 | 3.2 | 14.5 | 0.00 | 0.05 | 0.00 | 45 | 1012.5 |
| 20260503234004 | 20 | 198 | 3.2 | 12.9 | 0.00 | 0.05 | 0.00 | 44 | 1012.5 |
| 20260503233503 | 20 | 152 | 3.2 | 8.0 | 0.00 | 0.05 | 0.00 | 45 | 1012.5 |
| 20260503233004 | 19 | 275 | 3.2 | 4.8 | 0.00 | 0.05 | 0.00 | 46 | 1012.4 |
| 20260503232503 | 18 | 0 | 0.0 | 3.2 | 0.00 | 0.05 | 0.00 | 50 | 1012.4 |
| 20260503231504 | 18 | 239 | 3.2 | 3.2 | 0.00 | 0.05 | 0.00 | 50 | 1012.3 |
| 20260503231004 | 18 | 239 | 3.2 | 8.0 | 0.00 | 0.05 | 0.00 | 50 | 1012.3 |
| 20260503230504 | 18 | 303 | 4.8 | 8.0 | 0.00 | 0.05 | 0.00 | 49 | 1012.3 |
| 20260503230004 | 18 | 300 | 4.8 | 8.0 | 0.00 | 0.05 | 0.00 | 50 | 1012.6 |
| 20260503225505 | 18 | 321 | 8.0 | 9.7 | 0.00 | 0.05 | 0.00 | 49 | 1012.6 |
| 20260503225004 | 18 | 290 | 8.0 | 12.9 | 0.00 | 0.05 | 0.00 | 49 | 1012.6 |
| 20260503224506 | 18 | 328 | 4.8 | 12.9 | 0.00 | 0.05 | 0.00 | 50 | 1013.1 |
| 20260503224004 | 18 | 301 | 4.8 | 11.3 | 0.00 | 0.05 | 0.00 | 49 | 1013.1 |
| 20260503223505 | 19 | 321 | 8.0 | 12.9 | 0.00 | 0.05 | 0.00 | 50 | 1013.1 |
| 20260503222504 | 19 | 49 | 4.8 | 8.0 | 0.00 | 0.05 | 0.00 | 50 | 1013.4 |
| 20260503222005 | 19 | 49 | 4.8 | 8.0 | 0.00 | 0.05 | 0.00 | 50 | 1013.4 |
| 20260503221503 | 19 | 49 | 4.8 | 8.0 | 0.00 | 0.05 | 0.00 | 50 | 1013.4 |
| 20260503221004 | 19 | 0 | 4.8 | 19.3 | 0.00 | 0.05 | 0.00 | 47 | 1013.4 |
| 20260503220004 | 20 | 320 | 8.0 | 24.1 | 0.00 | 0.05 | 0.00 | 47 | 1013.3 |
| 20260503215004 | 20 | 354 | 8.0 | 16.1 | 0.00 | 0.05 | 0.00 | 43 | 1013.3 |
| 20260503214506 | 21 | 23 | 11.3 | 14.5 | 0.00 | 0.05 | 0.00 | 40 | 1012.8 |
| 20260503214003 | 21 | 61 | 11.3 | 24.1 | 0.00 | 0.05 | 0.00 | 39 | 1012.8 |
| 20260503213505 | 21 | 120 | 11.3 | 19.3 | 0.00 | 0.05 | 0.00 | 39 | 1012.8 |
| 20260503213004 | 22 | 0 | 4.8 | 14.5 | 0.00 | 0.05 | 0.00 | 39 | 1012.6 |
| 20260503212505 | 22 | 156 | 9.7 | 14.5 | 0.00 | 0.05 | 0.00 | 39 | 1012.6 |
| 20260503210506 | 22 | 140 | 8.0 | 14.5 | 0.00 | 0.05 | 0.00 | 38 | 1012.5 |
| 20260503210004 | 23 | 176 | 1.6 | 11.3 | 0.00 | 0.05 | 0.00 | 37 | 1012.6 |